This is the latest recevied weather packets stored in our database for station/object KI8L. If no packets are shown the sender has not sent any weather packets the latest 1 day(s).
| Time | Temp. | Humidity | Pressure | Rain* | Wind** | Luminosity | Snow |
|---|---|---|---|---|---|---|---|
| 1778022740 | 13.89° C | 99% | 1010.1 hPa | 1.27 mm | 0 m/s | 14 W/m² | - |
| 1778022437 | 13.89° C | 99% | 1009.9 hPa | 1.27 mm | 0 m/s | 13 W/m² | - |
| 1778022134 | 13.89° C | 99% | 1010 hPa | 1.78 mm | 0 m/s | 6 W/m² | - |
| 1778021830 | 13.89° C | 99% | 1010 hPa | 3.05 mm | 0 m/s | 10 W/m² | - |
| 1778021527 | 13.89° C | 99% | 1010.1 hPa | 4.83 mm | 0.45 m/s, 355° | 12 W/m² | - |
| 1778021222 | 13.89° C | 99% | 1010.3 hPa | 4.83 mm | 0 m/s | 12 W/m² | - |
| 1778020920 | 13.89° C | 99% | 1010.3 hPa | 6.1 mm | 0 m/s | 14 W/m² | - |
| 1778020618 | 13.89° C | 99% | 1010.3 hPa | 4.83 mm | 0 m/s | 18 W/m² | - |
| 1778020313 | 13.89° C | 99% | 1010.4 hPa | 4.83 mm | 0 m/s | 20 W/m² | - |
| 1778020010 | 13.89° C | 99% | 1010.3 hPa | 7.11 mm | 0 m/s | 15 W/m² | - |
| 1778019706 | 13.89° C | 99% | 1010.2 hPa | 10.67 mm | 0.45 m/s, 309° | 13 W/m² | - |
| 1778019403 | 13.89° C | 99% | 1010.6 hPa | 9.65 mm | 0 m/s | 10 W/m² | - |
| 1778019099 | 14.44° C | 99% | 1010.3 hPa | 4.32 mm | 0.45 m/s, 309° | 7 W/m² | - |
| 1778018797 | 14.44° C | 99% | 1010 hPa | 3.05 mm | 0.89 m/s, 329° | 8 W/m² | - |
| 1778018495 | 14.44° C | 99% | 1009.8 hPa | 1.78 mm | 0 m/s | 25 W/m² | - |
| 1778018192 | 14.44° C | 99% | 1009.6 hPa | 0 mm | 0 m/s | 33 W/m² | - |
| 1778017890 | 14.44° C | 99% | 1009.7 hPa | 0 mm | 0 m/s | 38 W/m² | - |
| 1778017588 | 14.44° C | 99% | 1009.5 hPa | 0 mm | 0 m/s | 49 W/m² | - |
| 1778017285 | 14.44° C | 99% | 1009.6 hPa | 0 mm | 0 m/s | 38 W/m² | - |
| 1778016982 | 14.44° C | 99% | 1009.9 hPa | 0 mm | 0 m/s | 43 W/m² | - |
| 1778016679 | 14.44° C | 99% | 1009.9 hPa | 0 mm | 0 m/s | 39 W/m² | - |
| 1778016375 | 14.44° C | 99% | 1009.9 hPa | 0 mm | 0.45 m/s, 329° | 55 W/m² | - |
| 1778016073 | 14.44° C | 99% | 1009.8 hPa | 0 mm | 0 m/s | 42 W/m² | - |
| 1778015769 | 14.44° C | 99% | 1009.8 hPa | 0 mm | 0 m/s | 69 W/m² | - |
| 1778015467 | 14.44° C | 99% | 1009.9 hPa | 0 mm | 0 m/s | 39 W/m² | - |
* Rain latest hour (hover to see other rain measurements)
** Current wind speed in m/s (hover to see current wind gust speed)